Time;durP1;ratioP1;P1;durP2;ratioP2;P2;SDS_P1;SDS_P2;PMS_P1;PMS_P2;Temp;Humidity;BMP_temperature;BMP_pressure;BME280_temperature;BME280_humidity;BME280_pressure;Samples;Min_cycle;Max_cycle;Signal;HPM_P1;HPM_P2
2023/01/22 00:01:11;;;;;;;408.97;209.77;;;;;;;;;;4977600;28;20213;-48
2023/01/22 00:03:38;;;;;;;405.37;204.80;;;;;;;;;;4979320;28;21598;-49
2023/01/22 00:06:05;;;;;;;425.20;223.80;;;;;;;;;;4977292;28;20251;-48
2023/01/22 00:08:31;;;;;;;390.27;193.87;;;;;;;;;;4978249;28;20225;-48
2023/01/22 00:10:57;;;;;;;405.83;214.83;;;;;;;;;;4979332;28;20646;-48
2023/01/22 00:13:24;;;;;;;407.80;202.30;;;;;;;;;;4979007;28;20648;-48
2023/01/22 00:15:50;;;;;;;386.73;191.37;;;;;;;;;;4976139;28;20623;-48
2023/01/22 00:18:17;;;;;;;378.50;192.13;;;;;;;;;;4979006;28;20591;-48
2023/01/22 00:20:47;;;;;;;432.43;213.50;;;;;;;;;;4978799;28;20194;-48
2023/01/22 00:23:13;;;;;;;406.10;206.50;;;;;;;;;;4979646;28;20286;-48
2023/01/22 00:25:39;;;;;;;399.73;211.10;;;;;;;;;;4978749;28;20304;-48
2023/01/22 00:28:05;;;;;;;442.50;227.10;;;;;;;;;;4977124;28;20356;-49
2023/01/22 00:30:31;;;;;;;385.20;204.80;;;;;;;;;;4977006;28;20662;-48
2023/01/22 00:32:57;;;;;;;398.53;214.40;;;;;;;;;;4978053;28;20323;-48
2023/01/22 00:35:23;;;;;;;409.03;209.73;;;;;;;;;;4979065;28;20197;-48
2023/01/22 00:37:49;;;;;;;422.40;214.40;;;;;;;;;;4978453;28;20301;-48
2023/01/22 00:40:16;;;;;;;372.90;194.30;;;;;;;;;;4978983;28;20278;-48
2023/01/22 00:42:42;;;;;;;386.07;193.50;;;;;;;;;;4978602;28;20225;-48
2023/01/22 00:45:09;;;;;;;410.57;208.73;;;;;;;;;;4978170;28;20518;-48
2023/01/22 00:47:35;;;;;;;403.70;207.40;;;;;;;;;;4978291;28;20181;-48
2023/01/22 00:50:02;;;;;;;420.13;212.70;;;;;;;;;;4977377;28;20250;-48
2023/01/22 00:52:27;;;;;;;386.30;198.33;;;;;;;;;;4978534;28;20499;-49
2023/01/22 00:54:53;;;;;;;412.73;207.27;;;;;;;;;;4963074;22;20261;-57
2023/01/22 00:57:20;;;;;;;371.07;175.30;;;;;;;;;;4916464;28;20218;-54
2023/01/22 00:59:51;;;;;;;394.90;196.57;;;;;;;;;;4927350;28;20416;-53
2023/01/22 01:02:17;;;;;;;419.70;200.37;;;;;;;;;;4909764;28;20346;-54
2023/01/22 01:04:43;;;;;;;340.37;170.93;;;;;;;;;;4920834;28;20212;-54
2023/01/22 01:07:09;;;;;;;419.37;201.10;;;;;;;;;;4878889;28;20294;-55
2023/01/22 01:09:35;;;;;;;357.67;159.10;;;;;;;;;;4894056;28;20334;-54
2023/01/22 01:12:01;;;;;;;432.70;189.57;;;;;;;;;;4908078;28;20329;-54
2023/01/22 01:14:28;;;;;;;386.60;177.43;;;;;;;;;;4893976;28;20210;-54
2023/01/22 01:16:54;;;;;;;404.87;182.33;;;;;;;;;;4897385;28;20281;-53
2023/01/22 01:19:20;;;;;;;433.50;184.90;;;;;;;;;;4917938;28;20216;-53
2023/01/22 01:21:47;;;;;;;411.97;185.33;;;;;;;;;;4902556;28;20329;-54
2023/01/22 01:24:13;;;;;;;446.70;187.53;;;;;;;;;;4900508;28;20527;-54
2023/01/22 01:26:40;;;;;;;390.67;171.60;;;;;;;;;;4910521;28;20175;-53
2023/01/22 01:29:08;;;;;;;389.50;171.27;;;;;;;;;;4899897;28;20207;-54
2023/01/22 01:31:35;;;;;;;417.60;175.57;;;;;;;;;;4900658;28;20594;-54
2023/01/22 01:34:01;;;;;;;468.27;202.97;;;;;;;;;;4896967;28;20586;-54
2023/01/22 01:36:27;;;;;;;345.83;163.33;;;;;;;;;;4899817;28;20211;-54
2023/01/22 01:38:54;;;;;;;451.87;210.57;;;;;;;;;;4902098;28;20269;-54
2023/01/22 01:41:22;;;;;;;443.40;192.00;;;;;;;;;;4900814;28;20540;-54
2023/01/22 01:44:07;;;;;;;438.93;190.53;;;;;;;;;;4906216;28;20242;-53
2023/01/22 01:46:35;;;;;;;362.80;161.73;;;;;;;;;;4905686;28;20313;-53
2023/01/22 01:49:02;;;;;;;401.70;182.73;;;;;;;;;;4907453;28;20219;-52
2023/01/22 01:51:30;;;;;;;405.67;184.50;;;;;;;;;;4896041;28;20613;-53
2023/01/22 01:53:58;;;;;;;352.37;160.03;;;;;;;;;;4901375;28;20226;-53
2023/01/22 01:56:30;;;;;;;472.83;207.53;;;;;;;;;;4913146;28;20192;-53
2023/01/22 01:58:58;;;;;;;377.27;167.27;;;;;;;;;;4898630;28;20334;-52
2023/01/22 02:01:25;;;;;;;411.97;183.23;;;;;;;;;;4906054;28;20215;-53
2023/01/22 02:03:52;;;;;;;421.37;187.87;;;;;;;;;;4896318;28;20790;-53
2023/01/22 02:06:19;;;;;;;408.83;175.83;;;;;;;;;;4904606;28;20751;-53
2023/01/22 02:08:47;;;;;;;384.43;168.43;;;;;;;;;;4902582;28;20196;-52
2023/01/22 02:11:13;;;;;;;417.33;182.23;;;;;;;;;;4898293;28;20401;-53
2023/01/22 02:13:43;;;;;;;409.27;186.07;;;;;;;;;;4901779;28;20215;-53
2023/01/22 02:16:10;;;;;;;423.20;201.00;;;;;;;;;;4917993;28;20226;-53
2023/01/22 02:18:37;;;;;;;384.07;169.67;;;;;;;;;;4907613;28;20215;-53
2023/01/22 02:21:03;;;;;;;447.37;203.23;;;;;;;;;;4897023;28;20220;-53
2023/01/22 02:23:30;;;;;;;405.43;179.30;;;;;;;;;;4908367;28;20215;-53
2023/01/22 02:25:57;;;;;;;367.77;158.80;;;;;;;;;;4912401;28;20207;-53
2023/01/22 02:28:23;;;;;;;351.37;152.03;;;;;;;;;;4911576;28;20250;-53
2023/01/22 02:30:49;;;;;;;413.67;177.63;;;;;;;;;;4907444;28;20603;-53
2023/01/22 02:33:15;;;;;;;440.83;198.10;;;;;;;;;;4903558;28;20762;-53
2023/01/22 02:35:42;;;;;;;398.23;173.50;;;;;;;;;;4913121;28;20202;-52
2023/01/22 02:38:08;;;;;;;434.37;206.60;;;;;;;;;;4909212;28;20590;-53
2023/01/22 02:40:34;;;;;;;369.70;158.33;;;;;;;;;;4916974;28;20290;-53
2023/01/22 02:43:01;;;;;;;439.77;187.53;;;;;;;;;;4911309;28;20250;-53
2023/01/22 02:45:27;;;;;;;432.93;205.63;;;;;;;;;;4911343;28;20259;-53
2023/01/22 02:47:53;;;;;;;422.43;196.50;;;;;;;;;;4906158;28;20258;-53
2023/01/22 02:50:19;;;;;;;365.77;165.60;;;;;;;;;;4905816;28;20745;-53
2023/01/22 02:52:45;;;;;;;411.60;182.80;;;;;;;;;;4909301;28;20211;-53
2023/01/22 02:55:11;;;;;;;431.37;193.70;;;;;;;;;;4905393;28;20227;-53
2023/01/22 02:57:37;;;;;;;369.37;159.60;;;;;;;;;;4910735;28;20409;-53
2023/01/22 03:00:04;;;;;;;434.03;191.43;;;;;;;;;;4913755;28;20808;-52
2023/01/22 03:02:30;;;;;;;448.70;204.03;;;;;;;;;;4916275;28;20566;-53
2023/01/22 03:05:02;;;;;;;378.20;170.93;;;;;;;;;;4909355;28;20299;-52
2023/01/22 03:07:40;;;;;;;393.43;176.57;;;;;;;;;;4907325;28;20513;-53
2023/01/22 03:10:06;;;;;;;440.60;187.50;;;;;;;;;;4919214;28;20215;-52
2023/01/22 03:23:32;;;;;;;383.93;176.93;;;;;;;;;;4913712;28;21084;-53
2023/01/22 03:25:58;;;;;;;346.80;150.67;;;;;;;;;;4912262;28;20220;-53
2023/01/22 03:28:25;;;;;;;387.77;171.90;;;;;;;;;;4910040;28;21244;-54
2023/01/22 03:30:51;;;;;;;451.20;200.30;;;;;;;;;;4905834;28;20257;-53
2023/01/22 03:33:17;;;;;;;354.07;156.63;;;;;;;;;;4912041;28;20228;-53
2023/01/22 03:35:43;;;;;;;374.90;177.17;;;;;;;;;;4914574;28;20667;-53
2023/01/22 03:38:09;;;;;;;366.33;168.47;;;;;;;;;;4910968;28;20589;-54
2023/01/22 03:40:35;;;;;;;358.33;171.47;;;;;;;;;;4915475;28;20253;-54
2023/01/22 03:43:01;;;;;;;394.63;180.37;;;;;;;;;;4910922;28;21147;-53
2023/01/22 03:45:27;;;;;;;359.73;164.23;;;;;;;;;;4909916;28;20235;-54
2023/01/22 03:47:53;;;;;;;405.73;177.80;;;;;;;;;;4914821;28;20221;-54
2023/01/22 03:50:20;;;;;;;371.50;180.07;;;;;;;;;;4915067;28;20195;-53
2023/01/22 03:52:46;;;;;;;404.87;179.30;;;;;;;;;;4904722;28;20216;-53
2023/01/22 03:55:12;;;;;;;318.77;149.43;;;;;;;;;;4917442;28;20771;-53
2023/01/22 03:57:38;;;;;;;380.63;163.70;;;;;;;;;;4911507;28;20227;-53
2023/01/22 04:00:06;;;;;;;422.40;196.97;;;;;;;;;;4912436;28;20314;-53
2023/01/22 04:02:32;;;;;;;438.00;194.97;;;;;;;;;;4909419;28;20215;-53
2023/01/22 04:04:59;;;;;;;348.00;154.83;;;;;;;;;;4916041;28;20212;-53
2023/01/22 04:07:25;;;;;;;374.20;166.70;;;;;;;;;;4920042;28;20220;-53
2023/01/22 04:09:51;;;;;;;435.30;186.90;;;;;;;;;;4914412;28;20220;-53
2023/01/22 04:12:17;;;;;;;379.10;170.47;;;;;;;;;;4909297;28;20702;-53
2023/01/22 04:14:44;;;;;;;415.53;174.30;;;;;;;;;;4912253;28;20275;-53
2023/01/22 04:17:10;;;;;;;347.23;151.17;;;;;;;;;;4911443;28;20210;-53
2023/01/22 04:19:36;;;;;;;415.77;202.47;;;;;;;;;;4906167;28;20214;-53
2023/01/22 04:22:03;;;;;;;374.03;180.00;;;;;;;;;;4904632;28;20247;-53
2023/01/22 04:24:29;;;;;;;444.60;199.33;;;;;;;;;;4908683;28;20289;-53
2023/01/22 04:26:58;;;;;;;434.40;211.67;;;;;;;;;;4903811;28;20628;-54
2023/01/22 04:29:23;;;;;;;414.00;185.13;;;;;;;;;;4907941;28;20274;-53
2023/01/22 04:31:49;;;;;;;399.17;177.13;;;;;;;;;;4906291;28;20322;-53
2023/01/22 04:34:15;;;;;;;357.50;172.43;;;;;;;;;;4906117;28;20231;-53
2023/01/22 04:36:41;;;;;;;394.50;170.87;;;;;;;;;;4900330;28;21459;-53
2023/01/22 04:39:08;;;;;;;393.33;180.03;;;;;;;;;;4905416;28;20270;-54
2023/01/22 04:41:34;;;;;;;384.50;176.37;;;;;;;;;;4918274;28;20242;-53
2023/01/22 04:44:00;;;;;;;414.63;183.77;;;;;;;;;;4907432;28;20195;-54
2023/01/22 04:46:26;;;;;;;420.33;194.73;;;;;;;;;;4899938;28;20226;-53
2023/01/22 04:48:52;;;;;;;389.13;187.33;;;;;;;;;;4922611;28;20246;-54
2023/01/22 04:51:18;;;;;;;405.20;181.97;;;;;;;;;;4905697;28;20233;-53
2023/01/22 04:53:44;;;;;;;419.87;178.90;;;;;;;;;;4914239;28;20219;-54
2023/01/22 04:56:10;;;;;;;381.43;176.73;;;;;;;;;;4914395;28;20211;-53
2023/01/22 04:58:36;;;;;;;429.90;195.43;;;;;;;;;;4911660;28;20250;-53
2023/01/22 05:01:02;;;;;;;339.83;152.57;;;;;;;;;;4909245;28;20589;-53
2023/01/22 05:03:28;;;;;;;413.83;194.23;;;;;;;;;;4908186;28;20355;-53
2023/01/22 05:05:54;;;;;;;414.20;186.03;;;;;;;;;;4913693;28;20235;-53
2023/01/22 05:08:20;;;;;;;446.97;206.90;;;;;;;;;;4920649;28;20287;-53
2023/01/22 05:10:46;;;;;;;407.97;183.63;;;;;;;;;;4914299;28;20679;-53
2023/01/22 05:13:12;;;;;;;357.43;161.90;;;;;;;;;;4910590;28;20218;-53
2023/01/22 05:15:38;;;;;;;319.43;147.73;;;;;;;;;;4907315;28;20282;-53
2023/01/22 05:18:04;;;;;;;386.93;172.67;;;;;;;;;;4905145;28;20318;-53
2023/01/22 05:20:30;;;;;;;392.17;175.47;;;;;;;;;;4916705;28;20244;-53
2023/01/22 05:22:56;;;;;;;422.97;184.73;;;;;;;;;;4909788;28;20234;-53
2023/01/22 05:25:22;;;;;;;464.10;208.97;;;;;;;;;;4910492;28;20698;-53
2023/01/22 05:27:48;;;;;;;457.77;207.30;;;;;;;;;;4908920;28;20215;-53
2023/01/22 05:30:15;;;;;;;400.90;182.53;;;;;;;;;;4911046;28;20804;-53
2023/01/22 05:32:40;;;;;;;444.67;206.57;;;;;;;;;;4899077;28;20241;-54
2023/01/22 05:35:07;;;;;;;420.57;189.97;;;;;;;;;;4910592;28;20231;-53
2023/01/22 05:37:33;;;;;;;433.27;202.43;;;;;;;;;;4911516;28;20574;-53
2023/01/22 05:39:59;;;;;;;379.27;170.70;;;;;;;;;;4907921;28;20302;-53
2023/01/22 05:42:25;;;;;;;427.33;190.27;;;;;;;;;;4896220;28;20223;-53
2023/01/22 05:44:51;;;;;;;432.10;200.03;;;;;;;;;;4906583;28;20235;-53
2023/01/22 05:47:17;;;;;;;488.53;221.60;;;;;;;;;;4904390;28;20179;-53
2023/01/22 05:49:43;;;;;;;429.23;184.43;;;;;;;;;;4911675;28;20262;-53
2023/01/22 05:52:12;;;;;;;406.63;188.47;;;;;;;;;;4900532;28;20912;-53
2023/01/22 05:54:38;;;;;;;417.47;195.53;;;;;;;;;;4908690;28;20223;-53
2023/01/22 05:57:04;;;;;;;387.83;174.83;;;;;;;;;;4915988;28;20238;-53
2023/01/22 05:59:30;;;;;;;392.17;169.67;;;;;;;;;;4912225;28;20666;-53
2023/01/22 06:01:56;;;;;;;459.80;207.93;;;;;;;;;;4905454;28;20338;-53
2023/01/22 06:04:22;;;;;;;416.60;180.43;;;;;;;;;;4907778;28;20298;-53
2023/01/22 06:06:48;;;;;;;392.60;186.83;;;;;;;;;;4909116;28;20736;-53
2023/01/22 06:09:14;;;;;;;385.63;192.37;;;;;;;;;;4906268;28;20266;-53
2023/01/22 06:11:40;;;;;;;343.13;163.03;;;;;;;;;;4909481;28;20362;-53
2023/01/22 06:14:06;;;;;;;352.17;169.87;;;;;;;;;;4916457;28;20579;-53
2023/01/22 06:16:32;;;;;;;405.33;192.43;;;;;;;;;;4923731;28;20215;-52
2023/01/22 06:18:58;;;;;;;377.13;182.97;;;;;;;;;;4914122;28;20219;-53
2023/01/22 06:21:24;;;;;;;398.53;185.10;;;;;;;;;;4912845;28;20487;-54
2023/01/22 06:23:50;;;;;;;380.53;178.43;;;;;;;;;;4906635;28;20741;-53
2023/01/22 06:26:16;;;;;;;417.03;192.83;;;;;;;;;;4908424;28;20223;-53
2023/01/22 06:28:43;;;;;;;416.60;200.83;;;;;;;;;;4914204;28;20237;-53
2023/01/22 06:31:09;;;;;;;386.77;189.80;;;;;;;;;;4907811;28;20223;-53
2023/01/22 06:33:35;;;;;;;447.97;222.30;;;;;;;;;;4902096;28;20284;-54
2023/01/22 06:36:02;;;;;;;406.97;193.13;;;;;;;;;;4915403;28;20229;-53
2023/01/22 06:38:28;;;;;;;452.40;208.40;;;;;;;;;;4904882;28;20219;-53
2023/01/22 06:40:54;;;;;;;344.00;166.33;;;;;;;;;;4920656;28;20179;-53
2023/01/22 06:43:20;;;;;;;440.10;209.53;;;;;;;;;;4901942;28;20231;-53
2023/01/22 06:45:46;;;;;;;378.37;175.57;;;;;;;;;;4917792;28;20244;-53
2023/01/22 06:48:12;;;;;;;351.23;167.53;;;;;;;;;;4918904;28;20245;-54
2023/01/22 06:50:38;;;;;;;383.23;182.37;;;;;;;;;;4909008;28;20376;-53
2023/01/22 06:53:05;;;;;;;325.67;157.77;;;;;;;;;;4904450;28;20290;-53
2023/01/22 06:55:31;;;;;;;395.77;195.13;;;;;;;;;;4907543;28;20944;-53
2023/01/22 06:57:57;;;;;;;394.53;186.07;;;;;;;;;;4901047;28;20220;-53
2023/01/22 07:00:23;;;;;;;421.03;213.17;;;;;;;;;;4909313;28;20211;-53
2023/01/22 07:02:49;;;;;;;377.43;171.13;;;;;;;;;;4906491;28;20230;-52
2023/01/22 07:05:15;;;;;;;352.00;176.10;;;;;;;;;;4895821;28;20646;-53
2023/01/22 07:07:42;;;;;;;441.58;209.25;;;;;;;;;;4902690;28;20655;-53
2023/01/22 07:10:09;;;;;;;328.47;169.37;;;;;;;;;;4909654;28;20745;-52
2023/01/22 07:12:35;;;;;;;397.17;184.43;;;;;;;;;;4911045;28;20285;-53
2023/01/22 07:15:01;;;;;;;356.70;180.10;;;;;;;;;;4904918;28;20250;-52
2023/01/22 07:17:27;;;;;;;384.67;181.50;;;;;;;;;;4913963;28;20638;-53
2023/01/22 07:19:53;;;;;;;381.70;177.50;;;;;;;;;;4911328;28;20448;-52
2023/01/22 07:22:19;;;;;;;392.23;180.73;;;;;;;;;;4911157;28;20772;-53
2023/01/22 07:24:45;;;;;;;418.33;201.73;;;;;;;;;;4901036;28;20306;-53
2023/01/22 07:27:11;;;;;;;398.13;182.13;;;;;;;;;;4921152;28;20211;-53
2023/01/22 07:29:37;;;;;;;363.23;173.93;;;;;;;;;;4908525;28;20262;-52
2023/01/22 07:32:04;;;;;;;311.10;159.53;;;;;;;;;;4912446;28;20531;-52
2023/01/22 07:34:30;;;;;;;429.77;197.83;;;;;;;;;;4910176;28;20226;-52
2023/01/22 07:36:56;;;;;;;378.10;184.80;;;;;;;;;;4909773;28;20243;-53
2023/01/22 07:39:22;;;;;;;372.00;179.67;;;;;;;;;;4914009;28;20883;-52
2023/01/22 07:41:48;;;;;;;393.73;185.87;;;;;;;;;;4904539;28;20597;-52
2023/01/22 07:44:15;;;;;;;361.37;178.03;;;;;;;;;;4903614;28;20208;-51
2023/01/22 07:46:41;;;;;;;354.03;170.20;;;;;;;;;;4901840;28;20260;-52
2023/01/22 07:49:07;;;;;;;353.33;178.00;;;;;;;;;;4919553;28;20216;-53
2023/01/22 07:51:33;;;;;;;406.97;189.23;;;;;;;;;;4908057;28;20211;-53
2023/01/22 07:53:59;;;;;;;384.47;175.47;;;;;;;;;;4908404;28;20220;-52
2023/01/22 07:56:25;;;;;;;349.90;161.90;;;;;;;;;;4917941;28;20856;-52
2023/01/22 07:58:51;;;;;;;376.87;183.00;;;;;;;;;;4909006;28;20227;-52
2023/01/22 08:01:17;;;;;;;531.27;271.53;;;;;;;;;;4877305;28;21080;-52
2023/01/22 08:03:44;;;;;;;557.33;295.80;;;;;;;;;;4892611;28;20446;-51
2023/01/22 08:06:10;;;;;;;380.13;173.90;;;;;;;;;;4908257;28;20229;-52
2023/01/22 08:08:36;;;;;;;420.70;205.33;;;;;;;;;;4900920;28;20198;-52
2023/01/22 08:11:03;;;;;;;354.23;176.23;;;;;;;;;;4902232;28;20275;-52
2023/01/22 08:13:29;;;;;;;413.20;199.17;;;;;;;;;;4901598;28;20211;-52
2023/01/22 08:15:55;;;;;;;412.00;193.83;;;;;;;;;;4914347;28;20285;-53
2023/01/22 08:18:21;;;;;;;436.00;204.13;;;;;;;;;;4916892;28;20219;-52
2023/01/22 08:20:47;;;;;;;428.60;206.50;;;;;;;;;;4917462;28;20299;-53
2023/01/22 08:23:13;;;;;;;409.10;203.80;;;;;;;;;;4919996;28;20243;-53
2023/01/22 08:25:39;;;;;;;370.70;176.77;;;;;;;;;;4919153;28;20228;-53
2023/01/22 08:28:06;;;;;;;352.70;173.67;;;;;;;;;;4913377;28;20307;-52
2023/01/22 08:30:32;;;;;;;414.93;204.67;;;;;;;;;;4909242;28;20223;-53
2023/01/22 08:32:58;;;;;;;396.20;189.23;;;;;;;;;;4923819;28;20418;-53
2023/01/22 08:35:25;;;;;;;436.33;214.17;;;;;;;;;;4931792;28;20283;-53
2023/01/22 08:37:51;;;;;;;336.47;161.00;;;;;;;;;;4927752;28;20224;-53
2023/01/22 08:40:17;;;;;;;411.10;192.50;;;;;;;;;;4927013;28;20670;-53
2023/01/22 08:42:49;;;;;;;364.00;176.50;;;;;;;;;;4916143;28;20289;-54
2023/01/22 08:45:15;;;;;;;382.30;188.53;;;;;;;;;;4940817;28;20310;-52
2023/01/22 08:47:41;;;;;;;381.33;189.97;;;;;;;;;;4930903;28;20188;-52
2023/01/22 08:50:08;;;;;;;363.07;169.03;;;;;;;;;;4943737;28;20187;-52
2023/01/22 08:52:34;;;;;;;374.03;176.43;;;;;;;;;;4939402;28;20594;-52
2023/01/22 08:55:00;;;;;;;345.10;162.33;;;;;;;;;;4923762;28;21087;-52
2023/01/22 08:57:26;;;;;;;438.83;202.73;;;;;;;;;;4951011;28;20242;-52
2023/01/22 08:59:52;;;;;;;418.40;198.30;;;;;;;;;;4954086;28;20493;-53
2023/01/22 09:02:18;;;;;;;373.40;180.47;;;;;;;;;;4928869;28;20231;-52
2023/01/22 09:04:44;;;;;;;388.00;185.20;;;;;;;;;;4921282;28;20677;-53
2023/01/22 09:07:10;;;;;;;427.40;200.77;;;;;;;;;;4940253;28;20352;-52
2023/01/22 09:09:36;;;;;;;363.13;170.73;;;;;;;;;;4921929;28;20216;-52
2023/01/22 09:12:02;;;;;;;407.13;197.27;;;;;;;;;;4912463;28;20595;-53
2023/01/22 09:14:28;;;;;;;401.73;199.13;;;;;;;;;;4914749;28;20686;-53
2023/01/22 09:16:54;;;;;;;366.03;174.23;;;;;;;;;;4944959;28;20435;-53
2023/01/22 09:19:20;;;;;;;447.27;207.77;;;;;;;;;;4912103;28;20880;-53
2023/01/22 09:21:46;;;;;;;415.17;199.33;;;;;;;;;;4897748;28;20234;-52
2023/01/22 09:24:12;;;;;;;380.97;178.83;;;;;;;;;;4908081;28;20227;-53
2023/01/22 09:26:39;;;;;;;603.03;305.88;;;;;;;;;;4893215;28;20437;-51
2023/01/22 09:29:06;;;;;;;497.00;238.40;;;;;;;;;;4884264;28;21947;-51
2023/01/22 09:31:36;;;;;;;523.20;254.50;;;;;;;;;;4877644;28;20212;-53
2023/01/22 09:34:02;;;;;;;438.83;205.83;;;;;;;;;;4865812;28;20243;-52
2023/01/22 09:36:28;;;;;;;462.27;238.37;;;;;;;;;;4928673;28;20216;-52
2023/01/22 09:38:55;;;;;;;471.53;240.47;;;;;;;;;;4941790;28;20505;-52
2023/01/22 09:41:27;;;;;;;415.90;207.70;;;;;;;;;;4924163;28;20248;-53
2023/01/22 09:44:17;;;;;;;369.93;182.27;;;;;;;;;;4919465;28;21518;-52
2023/01/22 09:46:56;;;;;;;455.33;226.70;;;;;;;;;;4918415;28;20259;-52
2023/01/22 09:49:30;;;;;;;446.10;225.73;;;;;;;;;;4921128;28;20274;-53
2023/01/22 09:52:01;;;;;;;526.17;283.47;;;;;;;;;;4942473;28;20577;-53
2023/01/22 09:54:28;;;;;;;437.67;215.97;;;;;;;;;;4928102;28;20215;-53
2023/01/22 09:56:56;;;;;;;363.10;175.43;;;;;;;;;;4954174;28;20292;-53
2023/01/22 09:59:26;;;;;;;435.23;217.40;;;;;;;;;;4957434;28;20187;-53
2023/01/22 10:01:54;;;;;;;399.33;192.20;;;;;;;;;;4937306;28;20547;-53
2023/01/22 10:04:41;;;;;;;401.83;198.37;;;;;;;;;;4924340;28;20211;-53
2023/01/22 10:07:11;;;;;;;358.77;175.87;;;;;;;;;;4968614;28;20250;-52
2023/01/22 10:09:38;;;;;;;437.40;216.37;;;;;;;;;;4929861;28;20724;-53
2023/01/22 10:12:11;;;;;;;419.43;207.00;;;;;;;;;;4933741;28;20239;-53
2023/01/22 10:14:38;;;;;;;382.60;188.33;;;;;;;;;;4941950;28;21349;-52
2023/01/22 10:17:04;;;;;;;371.00;186.80;;;;;;;;;;4933561;28;20188;-54
2023/01/22 10:19:41;;;;;;;391.97;191.83;;;;;;;;;;4937394;28;20499;-52
2023/01/22 10:22:13;;;;;;;451.23;223.63;;;;;;;;;;4946168;28;20326;-52
2023/01/22 10:24:42;;;;;;;438.57;224.40;;;;;;;;;;4928056;28;20221;-52
2023/01/22 10:27:13;;;;;;;387.07;191.07;;;;;;;;;;4931750;28;20400;-52
2023/01/22 10:29:40;;;;;;;373.30;189.63;;;;;;;;;;4939364;28;20183;-53
2023/01/22 10:32:16;;;;;;;341.83;167.53;;;;;;;;;;4930940;28;20256;-52
2023/01/22 10:34:42;;;;;;;397.77;199.50;;;;;;;;;;4934817;28;20223;-52
2023/01/22 10:37:12;;;;;;;384.37;189.03;;;;;;;;;;4939098;28;20558;-53
2023/01/22 10:39:40;;;;;;;368.40;179.80;;;;;;;;;;4939301;28;20226;-53
2023/01/22 10:42:06;;;;;;;398.03;194.57;;;;;;;;;;4933626;28;20285;-52
2023/01/22 10:44:33;;;;;;;356.67;178.00;;;;;;;;;;4931577;28;20464;-53
2023/01/22 10:47:17;;;;;;;405.27;208.23;;;;;;;;;;4950852;28;20213;-53
2023/01/22 10:49:43;;;;;;;412.03;203.47;;;;;;;;;;4899192;28;20333;-53
2023/01/22 10:52:21;;;;;;;430.43;212.10;;;;;;;;;;4905785;28;20230;-52
2023/01/22 10:54:52;;;;;;;379.30;182.53;;;;;;;;;;4897542;28;20235;-53
2023/01/22 10:57:35;;;;;;;431.83;208.60;;;;;;;;;;4911774;28;20215;-52
2023/01/22 11:00:14;;;;;;;406.73;196.23;;;;;;;;;;4893195;28;20306;-52
2023/01/22 11:02:41;;;;;;;425.83;202.40;;;;;;;;;;4912967;28;20226;-53
2023/01/22 11:05:18;;;;;;;398.90;195.33;;;;;;;;;;4913877;28;20253;-52
2023/01/22 11:07:46;;;;;;;462.47;230.70;;;;;;;;;;4920278;28;20293;-52
2023/01/22 11:10:21;;;;;;;468.67;235.07;;;;;;;;;;4905564;28;20227;-53
2023/01/22 11:12:53;;;;;;;405.53;193.60;;;;;;;;;;4923500;28;20223;-52
2023/01/22 11:15:22;;;;;;;466.13;227.67;;;;;;;;;;4902961;28;20544;-52
2023/01/22 11:17:53;;;;;;;452.77;222.93;;;;;;;;;;4909260;28;20234;-52
2023/01/22 11:20:45;;;;;;;400.53;188.87;;;;;;;;;;4917614;28;20236;-52
2023/01/22 11:23:19;;;;;;;438.67;217.97;;;;;;;;;;4915980;28;20659;-53
2023/01/22 11:25:51;;;;;;;430.10;206.03;;;;;;;;;;4913237;28;21751;-52
2023/01/22 11:28:40;;;;;;;399.77;190.23;;;;;;;;;;4914653;28;20360;-52
2023/01/22 11:31:19;;;;;;;477.23;232.57;;;;;;;;;;4911757;28;20227;-52
2023/01/22 11:33:54;;;;;;;437.30;208.03;;;;;;;;;;4937111;28;20274;-53
2023/01/22 11:36:23;;;;;;;432.67;211.27;;;;;;;;;;4946046;28;20254;-53
2023/01/22 11:38:59;;;;;;;426.70;203.87;;;;;;;;;;4976981;28;20215;-53
2023/01/22 11:41:39;;;;;;;383.37;186.93;;;;;;;;;;4979853;28;20176;-53
2023/01/22 11:44:05;;;;;;;409.30;196.30;;;;;;;;;;4980121;28;20255;-53
2023/01/22 11:46:40;;;;;;;369.43;182.07;;;;;;;;;;4959201;28;20357;-52
2023/01/22 11:49:18;;;;;;;387.97;190.00;;;;;;;;;;4938241;28;20782;-52
2023/01/22 11:52:03;;;;;;;506.00;244.73;;;;;;;;;;4896133;28;20346;-51
2023/01/22 11:54:32;;;;;;;430.20;212.77;;;;;;;;;;4925515;28;20307;-53
2023/01/22 11:56:59;;;;;;;474.63;236.83;;;;;;;;;;4935408;28;20273;-53
2023/01/22 11:59:34;;;;;;;456.43;218.73;;;;;;;;;;4925711;28;20238;-52
2023/01/22 12:02:10;;;;;;;460.37;219.40;;;;;;;;;;4954107;28;20309;-52
2023/01/22 12:04:39;;;;;;;462.03;224.13;;;;;;;;;;4932651;28;20226;-52
2023/01/22 12:07:08;;;;;;;425.20;205.17;;;;;;;;;;4969623;28;20215;-53
2023/01/22 12:19:24;;;;;;;377.43;182.30;;;;;;;;;;4973906;28;20249;-53
2023/01/22 12:21:56;;;;;;;441.10;223.83;;;;;;;;;;4917224;28;21075;-52
2023/01/22 12:24:30;;;;;;;399.23;196.27;;;;;;;;;;4902000;28;20249;-52
2023/01/22 12:26:59;;;;;;;406.10;203.70;;;;;;;;;;4904583;28;20309;-53
2023/01/22 12:29:46;;;;;;;441.30;215.13;;;;;;;;;;4907499;28;20289;-53
2023/01/22 12:32:17;;;;;;;452.43;226.77;;;;;;;;;;4881541;28;20299;-54
2023/01/22 12:34:52;;;;;;;395.17;201.60;;;;;;;;;;4901320;28;20242;-54
2023/01/22 12:37:21;;;;;;;486.47;248.13;;;;;;;;;;4895433;28;20310;-52
2023/01/22 12:39:49;;;;;;;403.73;201.70;;;;;;;;;;4909554;28;20236;-52
2023/01/22 12:42:23;;;;;;;374.97;180.60;;;;;;;;;;4906016;28;20259;-52
2023/01/22 12:45:05;;;;;;;371.53;181.23;;;;;;;;;;4905971;28;20249;-52
2023/01/22 12:47:47;;;;;;;485.80;251.47;;;;;;;;;;4893057;28;20205;-52
2023/01/22 12:50:21;;;;;;;390.23;197.27;;;;;;;;;;4891805;28;20551;-52
2023/01/22 12:53:04;;;;;;;424.70;206.33;;;;;;;;;;4902222;28;20618;-52
2023/01/22 12:55:33;;;;;;;469.73;241.97;;;;;;;;;;4961444;22;20783;-49
2023/01/22 12:57:59;;;;;;;474.67;243.10;;;;;;;;;;4976321;28;20887;-49
2023/01/22 13:00:33;;;;;;;426.87;210.77;;;;;;;;;;4975899;28;20220;-50
2023/01/22 13:02:59;;;;;;;449.87;219.20;;;;;;;;;;4978198;28;20308;-49
2023/01/22 13:05:25;;;;;;;476.20;238.43;;;;;;;;;;4978900;28;20198;-48
2023/01/22 13:08:05;;;;;;;480.37;250.77;;;;;;;;;;4977803;28;20271;-49
2023/01/22 13:10:36;;;;;;;467.43;238.07;;;;;;;;;;4976497;28;20548;-49
2023/01/22 13:13:14;;;;;;;463.20;234.83;;;;;;;;;;4976876;28;20221;-49
2023/01/22 13:15:41;;;;;;;443.30;227.57;;;;;;;;;;4977638;28;20225;-48
2023/01/22 13:18:18;;;;;;;490.47;248.90;;;;;;;;;;4978102;28;20225;-49
2023/01/22 13:20:55;;;;;;;527.30;279.43;;;;;;;;;;4976066;28;20172;-48
2023/01/22 13:23:21;;;;;;;415.63;202.63;;;;;;;;;;4978351;28;20275;-49
2023/01/22 13:25:53;;;;;;;457.80;227.77;;;;;;;;;;4976470;28;20339;-49
2023/01/22 13:28:19;;;;;;;549.93;278.23;;;;;;;;;;4973055;28;20645;-49
2023/01/22 13:30:54;;;;;;;467.00;237.57;;;;;;;;;;4975997;28;20213;-48
2023/01/22 13:33:22;;;;;;;505.70;260.70;;;;;;;;;;4976308;28;20250;-49
2023/01/22 13:35:48;;;;;;;482.47;240.90;;;;;;;;;;4974419;28;20284;-49
2023/01/22 13:38:16;;;;;;;489.07;241.27;;;;;;;;;;4962378;28;20209;-49
2023/01/22 13:40:42;;;;;;;397.53;214.40;;;;;;;;;;4954671;28;20225;-48
2023/01/22 13:43:08;;;;;;;485.37;257.77;;;;;;;;;;4957411;28;20288;-49
2023/01/22 13:45:34;;;;;;;524.57;257.70;;;;;;;;;;4962668;28;20247;-50
2023/01/22 13:48:01;;;;;;;488.10;255.93;;;;;;;;;;4975510;28;20222;-49
2023/01/22 13:50:29;;;;;;;477.10;239.00;;;;;;;;;;4974200;28;20260;-48
2023/01/22 13:52:56;;;;;;;488.67;257.70;;;;;;;;;;4976686;28;20192;-49
2023/01/22 13:55:23;;;;;;;489.63;254.07;;;;;;;;;;4937712;28;1058801;-49
2023/01/22 13:57:51;;;;;;;505.77;261.43;;;;;;;;;;4975466;28;20703;-49
2023/01/22 14:00:22;;;;;;;466.37;230.30;;;;;;;;;;4977053;28;20276;-49
2023/01/22 14:02:49;;;;;;;446.23;228.70;;;;;;;;;;4976467;28;20270;-47
2023/01/22 14:05:20;;;;;;;547.63;276.57;;;;;;;;;;4976509;28;20355;-48
2023/01/22 14:07:46;;;;;;;414.10;219.50;;;;;;;;;;4976857;28;20592;-48
2023/01/22 14:10:15;;;;;;;508.10;257.40;;;;;;;;;;4975715;28;20276;-49
2023/01/22 14:12:42;;;;;;;455.93;227.73;;;;;;;;;;4974008;28;20221;-49
2023/01/22 14:15:15;;;;;;;470.90;233.70;;;;;;;;;;4978781;28;20229;-49
2023/01/22 14:17:41;;;;;;;450.43;221.10;;;;;;;;;;5058195;28;20175;-49